Time;durP1;ratioP1;P1;durP2;ratioP2;P2;SDS_P1;SDS_P2;PMS_P1;PMS_P2;Temp;Humidity;BMP_temperature;BMP_pressure;BME280_temperature;BME280_humidity;BME280_pressure;Samples;Min_cycle;Max_cycle;Signal;HPM_P1;HPM_P2
2021/05/14 00:01:55;;;;;;;9.85;5.40;;;;;;;12.87;70.49;100192.31;5000533;28;20057;-66
2021/05/14 00:04:22;;;;;;;9.45;5.45;;;;;;;12.92;70.29;100190.41;4969013;28;20039;-68
2021/05/14 00:06:49;;;;;;;16.02;5.47;;;;;;;12.92;70.31;100193.06;4950142;28;20050;-68
2021/05/14 00:09:16;;;;;;;12.13;5.65;;;;;;;12.77;70.99;100188.97;4969117;28;20043;-72
2021/05/14 00:11:44;;;;;;;13.60;5.57;;;;;;;12.91;70.60;100189.56;4968972;28;20042;-68
2021/05/14 00:14:10;;;;;;;12.95;5.90;;;;;;;12.95;70.31;100191.25;4953796;28;20055;-71
2021/05/14 00:16:36;;;;;;;17.52;5.00;;;;;;;12.87;70.66;100187.88;4948512;29;20065;-70
2021/05/14 00:19:03;;;;;;;12.77;5.70;;;;;;;12.83;70.35;100183.53;4949969;28;20130;-70
2021/05/14 00:21:33;;;;;;;10.95;5.55;;;;;;;12.82;70.36;100170.25;4948897;29;20071;-71
2021/05/14 00:23:59;;;;;;;13.68;5.32;;;;;;;12.82;70.68;100172.91;4957391;28;20039;-70
2021/05/14 00:26:25;;;;;;;10.65;5.30;;;;;;;12.68;71.40;100177.66;4967501;28;20054;-67
2021/05/14 00:28:51;;;;;;;11.45;5.63;;;;;;;12.53;71.93;100175.31;4952071;28;20052;-68
2021/05/14 00:31:18;;;;;;;17.90;6.28;;;;;;;12.47;71.85;100168.34;4950010;28;20046;-70
2021/05/14 00:33:44;;;;;;;13.50;5.47;;;;;;;12.53;71.55;100181.53;4951052;28;20055;-70
2021/05/14 00:36:10;;;;;;;17.75;6.50;;;;;;;12.50;71.28;100167.44;4967811;28;20062;-70
2021/05/14 00:38:36;;;;;;;22.05;5.70;;;;;;;12.60;71.65;100196.44;4968373;28;20039;-68
2021/05/14 00:41:03;;;;;;;18.77;5.88;;;;;;;12.62;71.62;100186.63;4965888;28;20104;-70
2021/05/14 00:43:30;;;;;;;17.35;5.90;;;;;;;12.68;71.59;100199.81;4989332;28;20121;-72
2021/05/14 00:45:56;;;;;;;16.77;4.97;;;;;;;12.74;71.16;100204.13;4948379;28;20054;-69
2021/05/14 00:48:23;;;;;;;14.00;5.57;;;;;;;12.77;71.13;100196.94;4950298;28;20419;-69
2021/05/14 00:50:49;;;;;;;15.02;5.35;;;;;;;12.88;70.76;100204.69;4968096;28;20038;-63
2021/05/14 00:53:15;;;;;;;10.20;4.90;;;;;;;12.87;70.80;100201.19;4966821;28;20175;-69
2021/05/14 00:55:41;;;;;;;14.30;5.68;;;;;;;12.88;70.83;100197.59;4967057;28;20058;-69
2021/05/14 00:58:06;;;;;;;16.85;5.70;;;;;;;12.82;70.83;100204.84;4949381;28;20078;-69
2021/05/14 01:00:32;;;;;;;14.50;5.50;;;;;;;12.71;71.66;100201.53;4968307;28;20162;-70
2021/05/14 01:02:58;;;;;;;11.20;5.45;;;;;;;12.83;70.99;100195.94;4968668;28;20057;-68
2021/05/14 01:05:24;;;;;;;13.60;5.05;;;;;;;12.94;70.49;100196.59;4967387;28;20050;-68
2021/05/14 01:07:51;;;;;;;15.27;5.60;;;;;;;12.79;70.81;100165.00;4964813;28;20051;-68
2021/05/14 01:10:18;;;;;;;13.50;4.90;;;;;;;12.93;70.79;100198.38;4962807;28;20054;-69
2021/05/14 01:12:45;;;;;;;16.15;5.15;;;;;;;12.94;70.65;100191.25;4947296;29;20428;-68
2021/05/14 01:15:11;;;;;;;11.90;5.32;;;;;;;12.86;71.03;100185.25;4940747;28;20422;-68
2021/05/14 01:17:37;;;;;;;16.10;5.93;;;;;;;12.87;70.91;100189.66;4966709;28;20495;-68
2021/05/14 01:20:05;;;;;;;10.98;5.10;;;;;;;12.79;70.82;100176.50;4968031;28;20093;-69
2021/05/14 01:22:31;;;;;;;11.73;5.20;;;;;;;12.73;71.12;100189.94;4967953;28;20133;-70
2021/05/14 01:24:57;;;;;;;14.35;5.47;;;;;;;12.69;71.09;100185.59;4965624;28;20131;-67
2021/05/14 01:27:23;;;;;;;12.32;4.63;;;;;;;12.60;71.53;100192.91;4964983;28;20162;-68
2021/05/14 01:29:49;;;;;;;14.38;5.60;;;;;;;12.51;71.82;100188.66;4967422;28;20051;-66
2021/05/14 01:32:16;;;;;;;15.63;5.05;;;;;;;12.60;71.78;100190.25;4948479;28;20511;-69
2021/05/14 01:34:43;;;;;;;16.35;5.78;;;;;;;12.69;71.73;100192.69;4949591;28;20043;-69
2021/05/14 01:37:09;;;;;;;21.10;5.78;;;;;;;12.69;71.57;100195.34;4949045;28;20043;-67
2021/05/14 01:39:35;;;;;;;14.55;5.78;;;;;;;12.58;71.63;100198.25;4950514;28;20051;-68
2021/05/14 01:42:02;;;;;;;17.25;5.55;;;;;;;12.53;71.86;100188.63;4943825;29;20043;-69
2021/05/14 01:44:28;;;;;;;12.98;5.88;;;;;;;12.39;71.98;100178.25;4945734;29;20039;-68
2021/05/14 01:46:54;;;;;;;10.88;5.55;;;;;;;12.42;72.49;100191.50;4946982;28;20050;-69
2021/05/14 01:49:20;;;;;;;16.00;5.85;;;;;;;12.41;72.42;100189.75;4945860;28;20043;-69
2021/05/14 01:51:47;;;;;;;17.17;6.00;;;;;;;12.42;72.20;100190.66;4956961;28;20141;-70
2021/05/14 01:54:14;;;;;;;13.82;4.90;;;;;;;12.43;72.28;100185.28;4930625;29;20062;-67
2021/05/14 01:56:44;;;;;;;14.40;5.40;;;;;;;12.41;71.74;100187.09;4931162;29;20043;-68
2021/05/14 01:59:10;;;;;;;11.27;5.30;;;;;;;12.31;72.32;100188.19;4946074;28;20121;-67
2021/05/14 02:01:36;;;;;;;15.40;6.13;;;;;;;12.33;72.08;100181.06;4947289;29;20046;-63
2021/05/14 02:04:01;;;;;;;15.15;4.93;;;;;;;12.36;72.37;100193.41;4949134;28;20132;-65
2021/05/14 02:06:27;;;;;;;13.43;5.00;;;;;;;12.33;72.08;100189.03;4955939;28;20352;-66
2021/05/14 02:08:53;;;;;;;12.00;5.20;;;;;;;12.36;71.86;100189.00;4969104;28;20035;-63
2021/05/14 02:11:19;;;;;;;15.85;4.90;;;;;;;12.43;71.93;100187.06;4971604;28;20047;-67
2021/05/14 02:13:45;;;;;;;12.07;4.95;;;;;;;12.39;72.16;100193.38;4969956;28;20043;-62
2021/05/14 02:16:11;;;;;;;10.98;4.45;;;;;;;12.43;71.81;100195.91;4967981;28;20057;-65
2021/05/14 02:18:39;;;;;;;9.23;4.05;;;;;;;12.28;72.36;100196.25;4967883;28;20046;-65
2021/05/14 02:21:06;;;;;;;12.77;4.93;;;;;;;12.36;71.68;100201.41;4950834;28;20049;-65
2021/05/14 02:23:32;;;;;;;13.32;4.57;;;;;;;12.47;71.68;100194.94;4967569;28;20054;-68
2021/05/14 02:25:58;;;;;;;10.10;4.38;;;;;;;12.38;71.79;100192.47;4950687;28;20042;-68
2021/05/14 02:28:24;;;;;;;12.32;4.78;;;;;;;12.40;71.91;100195.09;4952724;28;20186;-66
2021/05/14 02:30:50;;;;;;;13.90;5.15;;;;;;;12.43;72.14;100201.22;4968704;28;20101;-65
2021/05/14 02:33:16;;;;;;;10.45;4.57;;;;;;;12.53;71.43;100194.81;4968875;28;20047;-68
2021/05/14 02:35:42;;;;;;;13.32;4.38;;;;;;;12.62;71.09;100199.09;4953296;28;20466;-66
2021/05/14 02:38:08;;;;;;;16.58;4.60;;;;;;;12.54;71.14;100177.94;4971145;28;20051;-65
2021/05/14 02:40:35;;;;;;;13.65;4.85;;;;;;;12.67;71.21;100190.06;4953571;28;20061;-66
2021/05/14 02:43:02;;;;;;;12.32;4.40;;;;;;;12.69;71.19;100180.28;4967016;28;20074;-66
2021/05/14 02:45:29;;;;;;;13.65;4.30;;;;;;;12.75;70.69;100182.78;4969993;28;20513;-65
2021/05/14 02:47:55;;;;;;;11.52;4.38;;;;;;;12.90;70.47;100195.75;4953172;28;20440;-66
2021/05/14 02:50:20;;;;;;;12.07;4.45;;;;;;;12.96;70.21;100198.31;4967859;28;20105;-68
2021/05/14 02:52:47;;;;;;;14.60;4.68;;;;;;;12.98;69.98;100191.16;4968626;28;20554;-66
2021/05/14 02:55:13;;;;;;;16.20;4.90;;;;;;;12.96;70.23;100181.44;4969648;28;20049;-66
2021/05/14 02:57:42;;;;;;;12.18;4.68;;;;;;;13.12;69.79;100205.06;4970536;28;20147;-67
2021/05/14 03:00:10;;;;;;;20.33;5.65;;;;;;;13.14;69.92;100197.03;4967374;28;20526;-66
2021/05/14 03:02:36;;;;;;;14.70;5.25;;;;;;;13.08;69.44;100181.19;4962018;28;20134;-67
2021/05/14 03:05:03;;;;;;;18.42;5.97;;;;;;;13.14;69.63;100200.56;4933904;29;20563;-66
2021/05/14 03:07:29;;;;;;;16.83;4.85;;;;;;;13.24;69.68;100203.88;4962655;28;20086;-68
2021/05/14 03:09:55;;;;;;;18.42;4.75;;;;;;;13.28;69.08;100205.56;4953156;28;20093;-68
2021/05/14 03:12:21;;;;;;;12.07;4.43;;;;;;;13.37;68.93;100197.34;4969081;28;20109;-67
2021/05/14 03:14:47;;;;;;;11.40;4.78;;;;;;;13.41;68.62;100191.03;4969289;28;20078;-66
2021/05/14 03:17:14;;;;;;;24.67;5.97;;;;;;;13.56;68.05;100203.97;4951034;28;20043;-67
2021/05/14 03:19:40;;;;;;;13.40;4.88;;;;;;;13.44;68.12;100166.97;4952963;28;20069;-66
2021/05/14 03:22:06;;;;;;;11.55;4.55;;;;;;;13.70;67.79;100194.69;4967773;28;20043;-66
2021/05/14 03:24:32;;;;;;;10.40;4.65;;;;;;;13.80;67.51;100208.66;4968027;28;20076;-69
2021/05/14 03:26:58;;;;;;;20.83;4.82;;;;;;;13.78;68.06;100205.19;4968325;28;20101;-66
2021/05/14 03:29:25;;;;;;;14.93;4.80;;;;;;;13.83;67.50;100195.28;4968492;28;20057;-67
2021/05/14 03:31:51;;;;;;;11.90;4.40;;;;;;;13.97;66.78;100209.13;4968454;28;20043;-67
2021/05/14 03:34:17;;;;;;;14.15;4.43;;;;;;;14.02;66.58;100201.88;4967315;28;20043;-69
2021/05/14 03:36:43;;;;;;;11.27;4.30;;;;;;;14.12;66.72;100214.03;4984315;28;20105;-67
2021/05/14 03:39:09;;;;;;;13.85;4.50;;;;;;;14.18;66.35;100211.22;4952281;28;20054;-67
2021/05/14 03:44:21;;;;;;;16.95;4.65;;;;;;;14.40;66.04;100201.69;4969235;28;20047;-66
2021/05/14 03:46:47;;;;;;;21.45;5.03;;;;;;;14.25;66.15;100206.59;4968403;28;20499;-67
2021/05/14 03:49:13;;;;;;;11.73;4.00;;;;;;;14.38;65.63;100190.22;4950292;28;20534;-69
2021/05/14 03:51:39;;;;;;;13.52;4.07;;;;;;;14.49;65.12;100203.25;4949399;28;20094;-66
2021/05/14 03:54:05;;;;;;;7.85;3.58;;;;;;;14.49;64.69;100189.91;4968752;28;20049;-67
2021/05/14 03:56:32;;;;;;;6.05;3.63;;;;;;;14.60;64.28;100209.16;4966398;28;20058;-66
2021/05/14 03:59:00;;;;;;;11.63;3.50;;;;;;;14.51;63.92;100212.94;4964681;28;20085;-68
2021/05/14 04:01:28;;;;;;;12.70;3.42;;;;;;;14.53;64.21;100186.22;4949919;28;20057;-67
2021/05/14 04:03:54;;;;;;;6.63;3.25;;;;;;;14.74;63.57;100199.81;4967191;28;20047;-65
2021/05/14 04:06:32;;;;;;;12.43;3.15;;;;;;;14.77;63.72;100190.84;5059103;28;20361;-68
2021/05/14 04:08:57;;;;;;;9.20;3.28;;;;;;;14.90;63.88;100197.53;5061295;28;20044;-66
2021/05/14 04:16:52;;;;;;;9.43;3.65;;;;;;;15.11;62.84;100196.91;5062423;28;20493;-68
2021/05/14 04:19:20;;;;;;;10.07;4.18;;;;;;;15.23;63.22;100200.03;5057636;28;20044;-66
2021/05/14 04:21:46;;;;;;;17.60;3.65;;;;;;;15.07;63.11;100169.38;5042484;28;20044;-65
2021/05/14 04:24:12;;;;;;;15.48;3.90;;;;;;;15.29;62.16;100198.97;5042676;28;20071;-65
2021/05/14 04:26:38;;;;;;;9.05;3.75;;;;;;;15.29;62.81;100198.97;5058460;28;20102;-68
2021/05/14 04:29:04;;;;;;;14.25;4.22;;;;;;;15.37;62.87;100200.50;5060924;28;20212;-67
2021/05/14 04:31:29;;;;;;;11.10;3.90;;;;;;;15.46;62.09;100196.69;5060945;28;20178;-66
2021/05/14 04:33:57;;;;;;;6.38;3.30;;;;;;;15.32;61.90;100157.00;5060942;28;20551;-65
2021/05/14 04:36:23;;;;;;;10.13;3.75;;;;;;;15.60;62.03;100199.75;5058055;28;20512;-66
2021/05/14 04:38:49;;;;;;;9.60;4.50;;;;;;;15.65;62.24;100193.31;5062158;28;20051;-65
2021/05/14 04:41:15;;;;;;;7.40;4.00;;;;;;;15.79;61.55;100193.72;5061566;28;20045;-65
2021/05/14 04:43:41;;;;;;;10.35;3.88;;;;;;;15.84;61.79;100199.81;5061506;28;20127;-68
2021/05/14 04:46:07;;;;;;;12.48;3.80;;;;;;;15.83;61.80;100197.19;5059948;28;20052;-65
2021/05/14 04:48:33;;;;;;;9.15;5.57;;;;;;;15.85;61.17;100188.16;5060429;28;20135;-67
2021/05/14 04:50:59;;;;;;;9.23;5.55;;;;;;;15.72;60.73;100178.84;5059859;28;20182;-66
2021/05/14 04:53:31;;;;;;;12.02;5.88;;;;;;;15.82;60.67;100180.25;5057484;28;20238;-66
2021/05/14 04:56:00;;;;;;;;;;;;;;;15.84;60.65;100189.09;5062222;28;20048;-65
2021/05/14 04:58:26;;;;;;;13.43;5.20;;;;;;;15.95;60.69;100189.59;5060541;28;19917;-65
2021/05/14 05:00:52;;;;;;;10.52;4.93;;;;;;;16.08;60.13;100179.34;5059366;28;20044;-66
2021/05/14 05:03:18;;;;;;;13.77;5.35;;;;;;;15.99;60.30;100153.78;5061381;28;20087;-66
2021/05/14 05:05:45;;;;;;;13.20;4.72;;;;;;;16.03;60.10;100151.88;5062217;28;20060;-64
2021/05/14 05:08:11;;;;;;;11.98;6.18;;;;;;;16.21;59.62;100170.81;5059323;28;20071;-65
2021/05/14 05:10:36;;;;;;;9.15;3.95;;;;;;;16.30;59.93;100170.47;5060027;28;20056;-67
2021/05/14 05:13:02;;;;;;;11.15;4.18;;;;;;;16.36;59.42;100170.25;5043873;28;20150;-66
2021/05/14 05:15:28;;;;;;;14.77;4.07;;;;;;;16.42;59.21;100167.38;5061298;28;20044;-65
2021/05/14 05:17:54;;;;;;;14.00;4.40;;;;;;;16.48;59.26;100168.94;5045965;28;20048;-67
2021/05/14 05:20:21;;;;;;;11.32;4.38;;;;;;;16.49;58.93;100152.84;5047012;28;20045;-65
2021/05/14 05:22:47;;;;;;;6.88;3.80;;;;;;;16.61;58.68;100163.06;5047402;28;20037;-67
2021/05/14 05:25:13;;;;;;;6.80;3.97;;;;;;;16.70;58.79;100170.75;5048202;28;20045;-65
2021/05/14 05:27:39;;;;;;;5.53;3.53;;;;;;;16.76;58.13;100181.25;5045141;28;20067;-66
2021/05/14 05:30:05;;;;;;;8.80;4.75;;;;;;;16.72;58.44;100152.84;5048879;28;20810;-65
2021/05/14 05:32:32;;;;;;;12.30;4.03;;;;;;;16.86;58.11;100171.91;5048140;28;20252;-65
2021/05/14 05:34:58;;;;;;;12.57;4.53;;;;;;;16.92;57.89;100179.72;5046612;28;20084;-65
2021/05/14 05:37:24;;;;;;;10.15;4.90;;;;;;;16.95;57.01;100168.88;5027153;28;20079;-66
2021/05/14 05:39:50;;;;;;;9.55;3.72;;;;;;;17.05;57.30;100182.81;5030121;28;20045;-65
2021/05/14 05:42:16;;;;;;;10.43;3.95;;;;;;;17.14;56.96;100174.38;5046784;28;20087;-65
2021/05/14 05:44:42;;;;;;;7.65;4.35;;;;;;;17.16;57.37;100165.34;5045225;28;20045;-65
2021/05/14 05:47:08;;;;;;;5.53;3.60;;;;;;;17.29;57.02;100179.13;5047502;28;20041;-66
2021/05/14 05:49:34;;;;;;;5.22;3.28;;;;;;;17.39;56.64;100180.50;5030566;28;20045;-66
2021/05/14 05:52:00;;;;;;;7.00;3.42;;;;;;;17.47;56.32;100179.28;5047232;28;20044;-65
2021/05/14 05:54:26;;;;;;;7.85;4.03;;;;;;;17.49;55.34;100182.75;5027865;28;20041;-64
2021/05/14 05:56:57;;;;;;;9.93;3.47;;;;;;;17.48;54.58;100167.63;5048285;28;20354;-64
2021/05/14 05:59:23;;;;;;;8.77;2.70;;;;;;;17.71;54.52;100172.88;5046826;28;20047;-65
2021/05/14 06:01:49;;;;;;;9.70;2.60;;;;;;;17.78;53.34;100174.38;5045076;28;20048;-65
2021/05/14 06:04:15;;;;;;;6.18;2.47;;;;;;;17.85;52.51;100157.06;5047051;28;20094;-66
2021/05/14 06:06:41;;;;;;;5.70;2.22;;;;;;;17.97;52.10;100166.41;5045206;28;20087;-67
2021/05/14 06:09:07;;;;;;;4.18;2.22;;;;;;;18.21;51.53;100169.81;5046284;28;20052;-66
2021/05/14 06:11:34;;;;;;;4.40;1.90;;;;;;;18.25;51.82;100168.72;5045768;28;20052;-67
2021/05/14 06:13:59;;;;;;;5.88;2.47;;;;;;;18.19;51.33;100134.13;5046507;28;20403;-66
2021/05/14 06:16:27;;;;;;;4.22;1.92;;;;;;;18.20;50.88;100135.88;5030297;28;20132;-66
2021/05/14 06:19:01;;;;;;;6.60;2.33;;;;;;;18.30;50.69;100159.53;5046297;28;20068;-66
2021/05/14 06:21:27;;;;;;;4.45;1.80;;;;;;;18.42;50.75;100158.13;5045191;28;20040;-63
2021/05/14 06:23:53;;;;;;;4.20;1.85;;;;;;;18.48;50.49;100144.44;5045509;28;20052;-64
2021/05/14 06:26:19;;;;;;;7.25;2.33;;;;;;;18.57;50.74;100152.06;5047644;28;20098;-64
2021/05/14 06:28:45;;;;;;;7.70;2.58;;;;;;;18.55;50.64;100133.31;5043534;28;20078;-66
2021/05/14 06:31:11;;;;;;;8.25;2.53;;;;;;;18.60;50.64;100127.75;5047297;28;20041;-64
2021/05/14 06:33:37;;;;;;;4.10;2.25;;;;;;;19.00;50.49;100143.72;5029305;28;20071;-65
2021/05/14 06:36:04;;;;;;;5.15;2.53;;;;;;;18.97;50.27;100130.41;5029109;28;20049;-65
2021/05/14 06:38:30;;;;;;;8.95;2.22;;;;;;;19.07;50.23;100139.81;5043381;28;20968;-64
2021/05/14 06:40:56;;;;;;;17.00;3.22;;;;;;;19.31;50.39;100149.38;5046810;28;20145;-66
2021/05/14 06:43:23;;;;;;;5.80;2.35;;;;;;;19.22;50.58;100123.78;5046013;28;20067;-64
2021/05/14 06:45:49;;;;;;;6.50;2.35;;;;;;;19.46;50.44;100140.56;5043696;28;20535;-64
2021/05/14 06:48:14;;;;;;;4.43;2.05;;;;;;;19.60;50.04;100136.22;5029098;28;20045;-66
2021/05/14 06:50:42;;;;;;;13.93;2.88;;;;;;;19.78;50.17;100131.72;5045576;28;20048;-65
2021/05/14 06:53:08;;;;;;;9.50;2.92;;;;;;;19.53;49.69;100125.84;5043793;28;20041;-65
2021/05/14 06:55:35;;;;;;;3.67;2.70;;;;;;;19.69;50.49;100132.19;5028183;28;20056;-65
2021/05/14 06:58:03;;;;;;;10.38;3.08;;;;;;;19.91;50.56;100136.41;5047047;28;20070;-65
2021/05/14 07:00:32;;;;;;;4.75;2.15;;;;;;;20.15;50.01;100135.16;5045203;28;20455;-65
2021/05/14 07:02:59;;;;;;;9.05;2.25;;;;;;;20.05;50.09;100133.00;5044022;28;20072;-64
2021/05/14 07:05:25;;;;;;;6.78;2.10;;;;;;;20.70;48.04;100111.47;5045178;28;20061;-67
2021/05/14 07:07:53;;;;;;;5.03;2.42;;;;;;;21.41;47.34;100122.59;5042691;28;20512;-65
2021/05/14 07:10:20;;;;;;;5.60;2.15;;;;;;;21.53;47.26;100134.53;5044583;28;20037;-65
2021/05/14 07:12:46;;;;;;;15.27;2.38;;;;;;;21.62;47.08;100133.97;5046477;28;20095;-66
2021/05/14 07:15:13;;;;;;;5.03;2.22;;;;;;;21.62;47.19;100136.66;5045425;28;20110;-66
2021/05/14 07:17:39;;;;;;;7.55;3.72;;;;;;;21.68;46.74;100137.16;5046267;28;20064;-65
2021/05/14 07:20:08;;;;;;;4.10;2.00;;;;;;;21.88;46.38;100144.13;5026205;28;20041;-67
2021/05/14 07:22:35;;;;;;;5.25;3.08;;;;;;;22.08;46.06;100131.13;5043625;28;20165;-64
2021/05/14 07:25:03;;;;;;;6.93;3.20;;;;;;;22.56;45.41;100145.31;5045175;28;20044;-66
2021/05/14 07:27:30;;;;;;;5.63;2.60;;;;;;;22.75;45.02;100135.09;5042956;28;20045;-64
2021/05/14 07:29:56;;;;;;;6.97;2.60;;;;;;;22.87;44.54;100116.25;5046083;28;20045;-64
2021/05/14 07:32:23;;;;;;;5.28;2.38;;;;;;;23.35;43.72;100098.66;5046166;28;20060;-64
2021/05/14 07:34:49;;;;;;;5.47;2.20;;;;;;;23.94;42.84;100118.03;5046161;28;20049;-64
2021/05/14 07:37:15;;;;;;;10.98;2.30;;;;;;;24.06;42.66;100119.03;5043490;28;20049;-65
2021/05/14 07:39:41;;;;;;;9.00;2.45;;;;;;;24.28;42.71;100117.41;5046156;28;20451;-65
2021/05/14 07:42:07;;;;;;;13.68;3.15;;;;;;;24.22;42.66;100116.97;5046493;28;20128;-67
2021/05/14 07:44:33;;;;;;;5.25;2.80;;;;;;;24.08;43.45;100106.22;5044973;28;20051;-67
2021/05/14 07:47:43;;;;;;;4.70;2.42;;;;;;;24.02;43.38;100109.38;5043816;28;20029;-69
2021/05/14 07:50:15;;;;;;;11.95;3.35;;;;;;;25.21;41.55;100115.13;5026327;28;20043;-64
2021/05/14 07:52:41;;;;;;;5.60;2.80;;;;;;;25.99;39.87;100116.44;5036503;28;20045;-67
2021/05/14 07:55:17;;;;;;;4.93;2.60;;;;;;;25.93;39.31;100117.72;5044723;28;20041;-65
2021/05/14 07:57:43;;;;;;;7.70;2.58;;;;;;;25.73;39.88;100127.44;5046277;28;20056;-67
2021/05/14 08:00:09;;;;;;;10.23;2.40;;;;;;;25.25;40.22;100122.06;5044378;28;20068;-65
2021/05/14 08:02:35;;;;;;;6.95;2.90;;;;;;;26.29;39.09;100105.88;5043254;28;20457;-68
2021/05/14 08:05:02;;;;;;;9.02;3.10;;;;;;;27.10;37.04;100130.06;5044118;28;20560;-66
2021/05/14 08:07:29;;;;;;;10.73;3.00;;;;;;;28.83;34.36;100118.63;5027432;28;20416;-66
2021/05/14 08:10:31;;;;;;;7.22;3.97;;;;;;;28.98;33.68;100122.72;5046144;28;20049;-68
2021/05/14 08:12:57;;;;;;;5.53;2.75;;;;;;;30.48;32.15;100129.53;5027755;28;20426;-65
2021/05/14 08:15:24;;;;;;;10.60;2.88;;;;;;;31.26;30.68;100116.31;5045361;28;20131;-66
2021/05/14 08:17:51;;;;;;;7.43;2.95;;;;;;;31.63;30.43;100117.06;5043484;28;20049;-64
2021/05/14 08:20:18;;;;;;;6.35;3.20;;;;;;;31.85;30.28;100111.19;5046210;28;20098;-69
2021/05/14 08:22:45;;;;;;;12.48;2.72;;;;;;;30.39;32.15;100121.34;5023353;28;20087;-66
2021/05/14 08:25:12;;;;;;;6.90;2.78;;;;;;;26.87;38.18;100102.97;5043681;28;20083;-68
2021/05/14 08:27:40;;;;;;;10.27;3.17;;;;;;;27.09;37.93;100103.81;5044619;28;20048;-63
2021/05/14 08:30:08;;;;;;;9.00;3.00;;;;;;;27.23;37.62;100089.97;5044467;28;20416;-66
2021/05/14 08:32:34;;;;;;;9.80;2.95;;;;;;;28.48;35.96;100098.19;5044504;28;20547;-69
2021/05/14 08:35:00;;;;;;;6.78;3.80;;;;;;;28.53;36.42;100104.09;5044464;28;20037;-64
2021/05/14 08:37:26;;;;;;;11.00;3.78;;;;;;;31.04;32.51;100107.63;5026850;28;20049;-63
2021/05/14 08:39:52;;;;;;;7.57;3.58;;;;;;;31.54;31.70;100109.78;5043899;28;20045;-66
2021/05/14 08:42:18;;;;;;;10.20;3.70;;;;;;;30.65;32.92;100097.81;5044289;28;20548;-67
2021/05/14 08:44:44;;;;;;;9.65;3.95;;;;;;;32.31;30.23;100094.44;5027367;28;20518;-67
2021/05/14 08:47:12;;;;;;;12.48;3.78;;;;;;;33.63;27.87;100094.78;5044915;28;20160;-64
2021/05/14 08:49:39;;;;;;;12.60;3.05;;;;;;;33.50;28.31;100087.03;5027707;28;20045;-64
2021/05/14 08:52:08;;;;;;;7.80;3.10;;;;;;;33.20;27.78;100088.44;5042598;28;20059;-65
2021/05/14 08:54:36;;;;;;;10.10;2.85;;;;;;;32.50;28.78;100069.50;5047585;28;20513;-65
2021/05/14 08:57:02;;;;;;;8.30;3.08;;;;;;;31.92;30.44;100067.50;5031059;28;20122;-66
2021/05/14 08:59:29;;;;;;;11.52;3.10;;;;;;;29.89;30.96;100065.94;5047105;28;20045;-66
2021/05/14 09:02:12;;;;;;;8.75;3.15;;;;;;;30.54;30.65;100063.25;5048389;28;20095;-66
2021/05/14 09:04:39;;;;;;;6.78;3.10;;;;;;;29.65;31.41;100071.00;5015109;28;20041;-65
2021/05/14 09:07:22;;;;;;;14.95;3.75;;;;;;;29.48;33.07;100067.09;5045622;28;20052;-67
2021/05/14 09:10:09;;;;;;;11.70;4.00;;;;;;;28.14;34.50;100058.47;5027535;28;20450;-67
2021/05/14 09:12:39;;;;;;;4.45;2.63;;;;;;;28.06;34.30;100056.41;5061047;28;20143;-65
2021/05/14 09:15:20;;;;;;;7.65;3.35;;;;;;;27.40;35.46;100054.00;5027189;28;20060;-66
2021/05/14 09:18:15;;;;;;;9.13;3.38;;;;;;;27.52;35.81;100055.66;5026115;28;20052;-65
2021/05/14 09:20:53;;;;;;;12.45;3.25;;;;;;;27.56;36.29;100048.97;5010841;28;20061;-66
2021/05/14 09:23:19;;;;;;;7.68;3.53;;;;;;;26.98;36.93;100057.56;5041463;28;20045;-67
2021/05/14 09:25:51;;;;;;;8.30;4.13;;;;;;;25.50;39.85;100044.09;5047298;28;20049;-66
2021/05/14 09:28:22;;;;;;;9.60;4.15;;;;;;;26.87;38.30;100043.97;5029497;28;20044;-66
2021/05/14 09:31:04;;;;;;;15.07;3.90;;;;;;;27.72;36.96;100048.53;5030033;28;20071;-67
2021/05/14 09:33:30;;;;;;;;;;;;;;;26.50;39.34;100056.06;5047145;28;20049;-66
2021/05/14 09:36:05;;;;;;;12.35;4.25;;;;;;;27.86;37.13;100046.38;5045795;28;19917;-69
2021/05/14 09:38:52;;;;;;;13.75;4.45;;;;;;;28.79;34.99;100045.31;5046195;28;20044;-66
2021/05/14 09:41:28;;;;;;;11.70;3.40;;;;;;;30.24;33.33;100051.66;5028766;28;20083;-66
2021/05/14 09:44:03;;;;;;;14.30;3.72;;;;;;;31.83;31.01;100050.09;5030713;28;20056;-67
2021/05/14 09:46:37;;;;;;;6.35;3.13;;;;;;;32.41;29.33;100056.75;5012925;28;20037;-69
2021/05/14 09:49:17;;;;;;;11.20;3.22;;;;;;;30.79;29.61;100059.84;5047054;28;20403;-66
2021/05/14 09:51:51;;;;;;;6.88;3.20;;;;;;;32.69;28.07;100073.91;5010343;28;20041;-66
2021/05/14 09:54:31;;;;;;;7.80;3.70;;;;;;;32.21;28.74;100060.72;5045965;28;20048;-67
2021/05/14 09:59:49;;;;;;;9.18;3.35;;;;;;;34.31;25.77;100087.94;5047829;28;20056;-68
2021/05/14 10:02:26;;;;;;;10.98;3.33;;;;;;;32.79;27.55;100063.69;5047130;28;20122;-65
2021/05/14 10:04:53;;;;;;;7.72;2.85;;;;;;;35.77;24.26;100069.72;5012438;28;20085;-67
2021/05/14 10:07:19;;;;;;;11.52;3.10;;;;;;;36.63;23.44;100059.94;5047919;28;20132;-69
2021/05/14 10:09:52;;;;;;;6.22;2.60;;;;;;;36.42;23.15;100053.44;5049927;28;20102;-69
2021/05/14 10:12:19;;;;;;;9.10;2.75;;;;;;;35.43;23.15;100063.72;5045937;28;20063;-67
2021/05/14 10:14:46;;;;;;;5.55;2.38;;;;;;;36.64;21.71;100069.13;5047976;28;20056;-66
2021/05/14 10:17:12;;;;;;;5.10;2.92;;;;;;;36.00;22.79;100061.44;5030823;28;20095;-66
2021/05/14 10:19:39;;;;;;;8.38;2.72;;;;;;;35.71;23.32;100064.91;5046764;28;20087;-69
2021/05/14 10:22:07;;;;;;;9.38;2.53;;;;;;;34.86;23.62;100047.59;5044869;28;20049;-67
2021/05/14 10:24:43;;;;;;;10.43;2.63;;;;;;;35.85;22.70;100055.00;5046385;28;20040;-68
2021/05/14 10:27:17;;;;;;;7.68;2.70;;;;;;;36.71;22.24;100061.81;5012664;28;20143;-68
2021/05/14 10:29:45;;;;;;;11.65;2.83;;;;;;;35.85;22.62;100050.34;5048823;28;20041;-66
2021/05/14 10:32:14;;;;;;;8.27;2.90;;;;;;;36.98;21.44;100049.22;5030208;28;20051;-66
2021/05/14 10:34:42;;;;;;;11.90;2.93;;;;;;;36.14;22.05;100055.94;5027877;28;20041;-66
2021/05/14 10:37:08;;;;;;;10.73;3.47;;;;;;;36.78;21.65;100052.56;5045815;28;20226;-69
2021/05/14 10:39:38;;;;;;;9.98;2.78;;;;;;;36.83;21.02;100044.53;5029709;28;20088;-69
2021/05/14 10:42:13;;;;;;;5.65;2.70;;;;;;;36.00;22.02;100054.03;5013985;28;20037;-69
2021/05/14 10:44:44;;;;;;;5.13;2.53;;;;;;;37.49;20.45;100048.19;5045601;28;20098;-69
2021/05/14 10:47:22;;;;;;;15.65;4.00;;;;;;;35.22;22.62;100035.00;5045938;28;20041;-67
2021/05/14 10:49:53;;;;;;;6.70;3.25;;;;;;;37.35;20.75;100047.19;5045443;28;20041;-70
2021/05/14 10:52:19;;;;;;;6.68;3.05;;;;;;;36.64;22.13;100038.72;5045855;28;20133;-72
2021/05/14 10:54:45;;;;;;;12.10;3.28;;;;;;;37.46;21.28;100037.50;5029664;28;20060;-75
2021/05/14 10:57:40;;;;;;;8.60;2.97;;;;;;;36.93;21.44;100024.91;5045177;28;20072;-72
2021/05/14 11:00:39;;;;;;;12.05;3.17;;;;;;;35.78;22.69;100026.41;5012661;28;20094;-73
2021/05/14 11:03:11;;;;;;;8.27;2.50;;;;;;;36.39;21.76;100013.25;5044022;28;20139;-65
2021/05/14 11:05:44;;;;;;;12.10;2.50;;;;;;;36.68;21.62;100004.09;4994112;28;20140;-70
2021/05/14 11:08:29;;;;;;;10.95;2.10;;;;;;;34.26;21.18;100000.38;5026520;28;20045;-68
2021/05/14 11:10:59;;;;;;;4.13;1.63;;;;;;;31.66;22.77;99989.75;5027833;28;20076;-70
2021/05/14 11:13:48;;;;;;;4.28;1.90;;;;;;;31.84;22.68;100001.59;5027155;28;20057;-66
2021/05/14 11:16:38;;;;;;;5.88;1.80;;;;;;;32.23;21.23;100011.13;5022749;28;20052;-65
2021/05/14 11:19:21;;;;;;;11.20;1.90;;;;;;;32.74;21.32;99997.34;5044220;28;20076;-66
2021/05/14 11:21:59;;;;;;;8.25;1.98;;;;;;;32.08;22.31;99988.88;5041903;28;20064;-72
2021/05/14 11:24:29;;;;;;;5.82;1.98;;;;;;;30.81;24.10;100002.19;5026420;28;20052;-66
2021/05/14 11:27:00;;;;;;;7.50;2.38;;;;;;;30.66;24.82;99990.84;5043687;28;20092;-65
2021/05/14 11:29:41;;;;;;;8.57;2.10;;;;;;;30.95;24.96;99999.78;5010201;28;20047;-66
2021/05/14 11:32:33;;;;;;;9.73;2.23;;;;;;;31.37;24.77;99989.13;4995661;28;20045;-66
2021/05/14 11:35:03;;;;;;;7.57;2.27;;;;;;;31.21;25.04;99981.56;4993958;28;20283;-65
2021/05/14 11:37:37;;;;;;;10.60;2.33;;;;;;;30.83;25.40;99981.84;5025308;28;20053;-67
2021/05/14 11:40:19;;;;;;;10.05;2.35;;;;;;;30.80;26.07;99973.09;5009677;28;20045;-66